Parintins, Brazil
Current Conditions -  °F | °C
As of 10:00 AM on Sunday 25 Jan 2015 (Local Time) from SBSN Reporting Station
Broken Clouds Broken Clouds  
Wind Chill: 28°   Ceiling: 10000
Heat Index: 32°   Visibility: 6mi
Dew Point: 24°   Wind: 9mph
Humidity: 79%   Direction: 70°ENE
Pressure: 29.91"   Gusts: NA
Location:  2.61°S, 56.74°W
Report Text: SBSN 251400Z 07008KT 9999 SCT013 BKN100 28/24 Q1013
Loading
Personal Weather Stations






























Interactive Weather Map New forecast layout! Learn more

10-Day Weather Forecast

Advertisements
Track Severe Weather on mobile